createdAt,value
2023-02-04T00:01:50.565Z,2.08
2023-02-04T00:04:18.350Z,2.58
2023-02-04T00:06:45.878Z,1.60
2023-02-04T00:09:13.802Z,2.28
2023-02-04T00:11:41.266Z,2.90
2023-02-04T00:14:09.259Z,2.25
2023-02-04T00:16:36.845Z,3.20
2023-02-04T00:19:04.970Z,3.30
2023-02-04T00:21:32.696Z,2.97
2023-02-04T00:24:00.455Z,2.50
2023-02-04T00:26:28.133Z,2.55
2023-02-04T00:28:56.440Z,2.72
2023-02-04T00:31:24.138Z,2.40
2023-02-04T00:33:52.094Z,3.13
2023-02-04T00:36:19.683Z,3.40
2023-02-04T00:38:47.583Z,2.72
2023-02-04T00:41:15.115Z,2.70
2023-02-04T00:43:42.937Z,2.00
2023-02-04T00:46:11.041Z,2.13
2023-02-04T00:48:38.913Z,1.52
2023-02-04T00:51:06.578Z,1.77
2023-02-04T00:53:34.494Z,1.70
2023-02-04T00:56:02.062Z,2.42
2023-02-04T00:58:29.968Z,1.48
2023-02-04T01:00:57.491Z,1.50
2023-02-04T01:03:25.314Z,0.93
2023-02-04T01:05:53.060Z,1.33
2023-02-04T01:08:21.245Z,0.68
2023-02-04T01:10:48.922Z,0.65
2023-02-04T01:13:16.945Z,1.13
2023-02-04T01:15:44.492Z,1.10
2023-02-04T01:18:13.008Z,0.85
2023-02-04T01:20:40.443Z,2.38
2023-02-04T01:23:09.166Z,1.13
2023-02-04T01:25:36.936Z,0.85
2023-02-04T01:28:04.995Z,0.50
2023-02-04T01:30:32.947Z,0.93
2023-02-04T01:33:01.006Z,1.48
2023-02-04T01:35:30.430Z,1.02
2023-02-04T01:37:58.314Z,0.55
2023-02-04T01:40:26.105Z,0.52
2023-02-04T01:45:25.042Z,0.60
2023-02-04T01:47:52.930Z,0.75
2023-02-04T01:50:20.568Z,1.10
2023-02-04T01:52:48.734Z,1.02
2023-02-04T01:55:22.461Z,0.40
2023-02-04T01:57:53.116Z,0.77
2023-02-04T02:00:33.380Z,0.30
2023-02-04T02:03:03.348Z,0.60
2023-02-04T02:05:46.602Z,0.60
2023-02-04T02:08:15.749Z,0.40
2023-02-04T02:10:47.269Z,0.60
2023-02-04T02:13:19.402Z,0.20
2023-02-04T02:15:48.178Z,0.10
2023-02-04T02:18:16.534Z,0.50
2023-02-04T02:20:45.551Z,0.45
2023-02-04T02:23:54.891Z,0.30
2023-02-04T02:26:23.767Z,0.75
2023-02-04T02:28:52.100Z,0.65
2023-02-04T02:31:22.506Z,0.17
2023-02-04T02:33:51.573Z,0.82
2023-02-04T02:36:19.989Z,0.80
2023-02-04T02:38:47.970Z,0.43
2023-02-04T02:41:15.464Z,0.20
2023-02-04T02:43:43.208Z,0.25
2023-02-04T02:46:10.784Z,0.30
2023-02-04T02:48:38.649Z,0.70
2023-02-04T02:51:06.237Z,0.32
2023-02-04T02:53:34.172Z,0.38
2023-02-04T02:56:04.776Z,0.30
2023-02-04T02:58:36.550Z,0.10
2023-02-04T03:03:51.979Z,0.60
2023-02-04T03:06:26.289Z,0.30
2023-02-04T03:08:56.969Z,0.30
2023-02-04T03:11:26.306Z,0.40
2023-02-04T03:13:54.755Z,0.30
2023-02-04T03:16:22.400Z,0.35
2023-02-04T03:18:50.935Z,0.10
2023-02-04T03:21:18.490Z,0.25
2023-02-04T03:23:46.451Z,0.52
2023-02-04T03:26:14.443Z,0.45
2023-02-04T03:28:43.369Z,0.20
2023-02-04T03:31:11.181Z,0.20
2023-02-04T03:33:39.206Z,0.55
2023-02-04T03:36:07.467Z,0.47
2023-02-04T03:38:35.383Z,0.53
2023-02-04T03:41:03.379Z,0.20
2023-02-04T03:43:33.643Z,0.40
2023-02-04T03:46:01.586Z,0.57
2023-02-04T03:48:29.425Z,0.30
2023-02-04T03:50:57.003Z,0.25
2023-02-04T03:53:24.887Z,0.30
2023-02-04T03:55:52.365Z,0.75
2023-02-04T03:58:20.256Z,0.20
2023-02-04T04:00:47.773Z,0.20
2023-02-04T04:03:15.826Z,0.15
2023-02-04T04:05:43.457Z,0.20
2023-02-04T04:08:11.207Z,0.20
2023-02-04T04:10:39.767Z,0.20
2023-02-04T04:13:08.505Z,0.17
2023-02-04T04:15:36.153Z,0.20
2023-02-04T04:18:04.840Z,0.10
2023-02-04T04:20:32.587Z,0.20
2023-02-04T04:23:01.026Z,0.70
2023-02-04T04:25:28.751Z,0.17
2023-02-04T04:27:56.619Z,0.43
2023-02-04T04:30:24.237Z,0.52
2023-02-04T04:32:52.342Z,0.10
2023-02-04T04:35:19.967Z,0.17
2023-02-04T04:37:47.771Z,0.35
2023-02-04T04:40:15.319Z,0.43
2023-02-04T04:42:43.204Z,0.25
2023-02-04T04:45:13.206Z,0.22
2023-02-04T04:47:41.058Z,0.47
2023-02-04T04:50:09.088Z,0.68
2023-02-04T04:52:37.857Z,0.20
2023-02-04T04:55:06.567Z,0.70
2023-02-04T04:57:34.883Z,0.90
2023-02-04T05:00:03.024Z,0.32
2023-02-04T05:02:30.802Z,0.28
2023-02-04T05:04:58.540Z,0.60
2023-02-04T05:07:26.545Z,0.35
2023-02-04T05:09:54.438Z,0.80
2023-02-04T05:12:22.433Z,0.40
2023-02-04T05:14:49.923Z,0.43
2023-02-04T05:17:18.302Z,0.20
2023-02-04T05:19:45.816Z,0.13
2023-02-04T05:22:13.686Z,0.75
2023-02-04T05:24:41.164Z,0.60
2023-02-04T05:27:09.091Z,0.98
2023-02-04T05:29:36.594Z,1.45
2023-02-04T05:32:04.718Z,0.68
2023-02-04T05:34:32.354Z,0.43
2023-02-04T05:37:00.139Z,0.55
2023-02-04T05:39:28.785Z,0.30
2023-02-04T05:41:56.704Z,0.52
2023-02-04T05:44:25.458Z,0.40
2023-02-04T05:46:54.062Z,0.40
2023-02-04T05:49:21.623Z,0.52
2023-02-04T05:51:49.501Z,0.38
2023-02-04T05:54:19.577Z,0.73
2023-02-04T05:56:48.205Z,0.65
2023-02-04T05:59:15.911Z,1.02
2023-02-04T06:01:44.248Z,0.40
2023-02-04T06:04:11.950Z,0.32
2023-02-04T06:06:39.846Z,0.17
2023-02-04T06:09:07.435Z,0.68
2023-02-04T06:11:35.256Z,0.57
2023-02-04T06:14:02.940Z,0.52
2023-02-04T06:16:30.855Z,0.40
2023-02-04T06:18:58.529Z,0.75
2023-02-04T06:21:26.462Z,0.30
2023-02-04T06:23:54.010Z,0.10
2023-02-04T06:26:21.949Z,0.35
2023-02-04T06:28:49.533Z,0.40
2023-02-04T06:31:17.556Z,0.15
2023-02-04T06:33:45.181Z,0.50
2023-02-04T06:36:13.110Z,0.52
2023-02-04T06:38:41.579Z,0.20
2023-02-04T06:41:09.524Z,0.80
2023-02-04T06:43:37.041Z,0.30
2023-02-04T06:46:05.097Z,0.40
2023-02-04T06:48:32.726Z,0.35
2023-02-04T06:51:00.997Z,0.20
2023-02-04T06:53:28.560Z,0.22
2023-02-04T06:55:56.471Z,0.30
2023-02-04T06:58:24.100Z,0.20
2023-02-04T07:00:52.192Z,0.30
2023-02-04T07:03:19.914Z,0.30
2023-02-04T07:05:47.785Z,0.32
2023-02-04T07:08:15.261Z,0.10
2023-02-04T07:10:43.038Z,0.40
2023-02-04T07:13:10.563Z,0.50
2023-02-04T07:15:38.397Z,0.20
2023-02-04T07:18:05.926Z,0.15
2023-02-04T07:20:34.143Z,0.63
2023-02-04T07:23:02.166Z,0.45
2023-02-04T07:25:29.964Z,0.60
2023-02-04T07:27:59.463Z,0.20
2023-02-04T07:30:27.294Z,0.52
2023-02-04T07:32:54.696Z,0.45
2023-02-04T07:35:22.626Z,0.20
2023-02-04T07:37:50.396Z,0.55
2023-02-04T07:40:18.532Z,0.82
2023-02-04T07:42:45.895Z,0.90
2023-02-04T07:45:18.485Z,0.90
2023-02-04T07:47:46.294Z,0.57
2023-02-04T07:50:14.385Z,1.40
2023-02-04T07:52:42.264Z,0.95
2023-02-04T07:55:10.526Z,0.87
2023-02-04T07:57:37.973Z,0.98
2023-02-04T08:00:07.301Z,0.85
2023-02-04T08:02:42.011Z,1.77
2023-02-04T08:07:37.897Z,1.10
2023-02-04T08:10:07.546Z,1.33
2023-02-04T08:12:35.175Z,0.88
2023-02-04T08:15:03.229Z,1.25
2023-02-04T08:17:30.786Z,0.80
2023-02-04T08:19:58.682Z,1.27
2023-02-04T08:22:26.489Z,1.00
2023-02-04T08:24:54.339Z,1.85
2023-02-04T08:27:21.800Z,0.82
2023-02-04T08:29:49.899Z,2.22
2023-02-04T08:32:32.582Z,2.75
2023-02-04T08:35:21.084Z,3.90
2023-02-04T08:37:48.651Z,3.30
2023-02-04T08:40:20.587Z,1.67
2023-02-04T08:42:48.130Z,1.10
2023-02-04T08:45:16.243Z,0.40
2023-02-04T08:47:43.766Z,1.17
2023-02-04T08:50:11.989Z,0.82
2023-02-04T08:52:39.517Z,1.05
2023-02-04T08:55:08.118Z,0.65
2023-02-04T08:57:35.619Z,2.25
2023-02-04T09:00:04.505Z,2.85
2023-02-04T09:02:32.119Z,3.80
2023-02-04T09:05:00.007Z,2.72
2023-02-04T09:07:27.478Z,2.00
2023-02-04T09:09:57.464Z,2.65
2023-02-04T09:12:29.689Z,3.00
2023-02-04T09:14:57.620Z,3.17
2023-02-04T09:17:25.646Z,2.33
2023-02-04T09:19:56.390Z,1.95
2023-02-04T09:22:24.205Z,1.15
2023-02-04T09:24:52.599Z,0.08
2023-02-04T09:27:20.224Z,0.00
2023-02-04T09:29:48.143Z,0.00
2023-02-04T09:32:15.736Z,0.30
2023-02-04T09:34:43.596Z,0.00
2023-02-04T09:37:11.548Z,0.10
2023-02-04T09:39:39.248Z,0.10
2023-02-04T09:42:07.445Z,0.20
2023-02-04T09:44:35.315Z,0.30
2023-02-04T09:47:03.026Z,0.20
2023-02-04T09:49:32.194Z,0.10
2023-02-04T09:51:59.788Z,0.20
2023-02-04T09:54:27.593Z,0.10
2023-02-04T09:56:55.091Z,0.30
2023-02-04T09:59:27.661Z,0.00
2023-02-04T10:02:03.331Z,0.25
2023-02-04T10:04:31.760Z,0.20
2023-02-04T10:06:59.804Z,0.38
2023-02-04T10:09:27.871Z,0.75
2023-02-04T10:11:55.428Z,0.30
2023-02-04T10:14:24.500Z,0.45
2023-02-04T10:16:59.465Z,0.20
2023-02-04T10:19:30.829Z,0.20
2023-02-04T10:21:58.942Z,0.13
2023-02-04T10:24:30.340Z,0.20
2023-02-04T10:27:12.731Z,0.10
2023-02-04T10:29:42.420Z,0.85
2023-02-04T10:32:32.657Z,0.10
2023-02-04T10:35:02.660Z,0.40
2023-02-04T10:42:30.535Z,0.82
2023-02-04T10:44:59.054Z,0.90
2023-02-04T10:47:31.247Z,1.98
2023-02-04T10:50:19.312Z,0.38
2023-02-04T10:52:55.544Z,0.43
2023-02-04T10:55:24.728Z,0.55
2023-02-04T10:57:53.905Z,0.32
2023-02-04T11:00:46.600Z,0.32
2023-02-04T11:03:25.211Z,0.73
2023-02-04T11:08:36.949Z,1.10
2023-02-04T11:11:15.689Z,1.65
2023-02-04T11:13:50.482Z,1.80
2023-02-04T11:16:19.014Z,1.75
2023-02-04T11:18:57.603Z,1.73
2023-02-04T11:21:33.212Z,2.72
2023-02-04T11:24:17.374Z,1.98
2023-02-04T11:27:10.555Z,3.33
2023-02-04T11:29:39.411Z,2.95
2023-02-04T11:32:28.392Z,2.67
2023-02-04T11:35:38.910Z,2.20
2023-02-04T11:38:40.968Z,3.00
2023-02-04T11:42:13.519Z,3.15
2023-02-04T11:45:17.067Z,2.67
2023-02-04T11:47:46.326Z,1.77
2023-02-04T11:50:33.158Z,2.45
2023-02-04T11:53:02.316Z,3.58
2023-02-04T11:55:35.403Z,2.78
2023-02-04T11:58:03.373Z,2.80
2023-02-04T12:00:33.542Z,2.38
2023-02-04T12:03:20.792Z,2.50
2023-02-04T12:05:49.805Z,3.15
2023-02-04T12:08:23.769Z,3.47
2023-02-04T12:11:11.375Z,2.20
2023-02-04T12:13:56.623Z,2.38
2023-02-04T12:16:25.616Z,2.67
2023-02-04T12:20:08.131Z,2.90
2023-02-04T12:23:10.522Z,3.20
2023-02-04T12:25:39.055Z,3.13
2023-02-04T12:30:36.276Z,2.58
2023-02-04T12:33:04.304Z,2.17
2023-02-04T12:35:31.986Z,2.55
2023-02-04T12:38:00.112Z,2.40
2023-02-04T12:40:28.005Z,3.47
2023-02-04T12:42:55.948Z,3.60
2023-02-04T12:45:23.456Z,2.17
2023-02-04T12:47:51.351Z,1.88
2023-02-04T12:50:22.857Z,4.18
2023-02-04T12:52:57.041Z,2.92
2023-02-04T12:55:27.838Z,3.63
2023-02-04T12:57:56.480Z,3.75
2023-02-04T13:00:24.611Z,3.38
2023-02-04T13:02:52.430Z,3.63
2023-02-04T13:05:20.010Z,3.90
2023-02-04T13:07:47.836Z,2.97
2023-02-04T13:10:15.484Z,4.55
2023-02-04T13:12:43.310Z,3.88
2023-02-04T13:15:11.500Z,4.25
2023-02-04T13:17:39.326Z,3.67
2023-02-04T13:20:07.562Z,4.22
2023-02-04T13:22:35.465Z,3.17
2023-02-04T13:25:04.166Z,3.75
2023-02-04T13:27:32.161Z,4.53
2023-02-04T13:29:59.672Z,3.88
2023-02-04T13:32:27.529Z,3.53
2023-02-04T13:34:55.043Z,3.42
2023-02-04T13:37:23.004Z,5.03
2023-02-04T13:39:50.519Z,4.38
2023-02-04T13:42:18.478Z,4.63
2023-02-04T13:44:46.011Z,3.53
2023-02-04T13:47:13.833Z,3.53
2023-02-04T13:49:41.364Z,3.88
2023-02-04T13:52:09.167Z,4.97
2023-02-04T13:54:36.878Z,3.40
2023-02-04T13:57:05.935Z,4.18
2023-02-04T13:59:33.421Z,5.28
2023-02-04T14:02:02.393Z,4.60
2023-02-04T14:04:29.908Z,3.97
2023-02-04T14:06:57.798Z,3.60
2023-02-04T14:09:25.680Z,2.47
2023-02-04T14:11:53.520Z,1.90
2023-02-04T14:14:21.007Z,2.00
2023-02-04T14:16:48.939Z,3.08
2023-02-04T14:19:17.179Z,1.27
2023-02-04T14:21:46.466Z,1.10
2023-02-04T14:24:14.087Z,2.17
2023-02-04T14:26:41.976Z,2.30
2023-02-04T14:29:11.315Z,1.40
2023-02-04T14:34:06.522Z,1.15
2023-02-04T14:36:34.460Z,1.23
2023-02-04T14:39:02.104Z,2.15
2023-02-04T14:41:31.304Z,1.02
2023-02-04T14:43:58.860Z,1.17
2023-02-04T14:46:26.707Z,1.00
2023-02-04T14:48:54.700Z,1.20
2023-02-04T14:51:22.586Z,1.02
2023-02-04T14:53:50.927Z,0.95
2023-02-04T14:56:19.487Z,0.40
2023-02-04T14:58:47.149Z,0.52
2023-02-04T15:01:15.653Z,0.82
2023-02-04T15:03:43.141Z,0.50
2023-02-04T15:06:10.952Z,0.30
2023-02-04T15:08:39.040Z,0.80
2023-02-04T15:11:07.400Z,0.77
2023-02-04T15:13:34.824Z,0.60
2023-02-04T15:16:05.427Z,0.43
2023-02-04T15:18:33.156Z,0.47
2023-02-04T15:21:01.331Z,0.57
2023-02-04T15:23:28.902Z,0.47
2023-02-04T15:25:57.684Z,0.28
2023-02-04T15:28:25.514Z,0.50
2023-02-04T15:30:53.668Z,1.17
2023-02-04T15:33:21.248Z,0.50
2023-02-04T15:35:49.023Z,1.40
2023-02-04T15:38:16.572Z,0.80
2023-02-04T15:40:44.604Z,0.20
2023-02-04T15:43:12.161Z,0.52
2023-02-04T15:45:43.767Z,0.55
2023-02-04T15:48:12.115Z,0.60
2023-02-04T15:50:40.309Z,0.47
2023-02-04T15:53:07.773Z,0.40
2023-02-04T15:55:36.908Z,0.50
2023-02-04T15:58:04.883Z,0.10
2023-02-04T16:00:33.631Z,0.73
2023-02-04T16:03:01.419Z,0.87
2023-02-04T16:05:30.200Z,0.40
2023-02-04T16:07:58.043Z,0.77
2023-02-04T16:10:26.214Z,0.77
2023-02-04T16:12:58.898Z,1.15
2023-02-04T16:15:27.197Z,0.63
2023-02-04T16:17:56.968Z,0.55
2023-02-04T16:20:24.891Z,0.60
2023-02-04T16:22:52.644Z,0.68
2023-02-04T16:25:20.540Z,0.70
2023-02-04T16:27:48.203Z,0.43
2023-02-04T16:30:16.548Z,0.77
2023-02-04T16:32:44.175Z,0.50
2023-02-04T16:35:12.064Z,0.30
2023-02-04T16:37:39.554Z,0.20
2023-02-04T16:40:08.246Z,0.38
2023-02-04T16:42:36.556Z,0.98
2023-02-04T16:45:04.818Z,0.30
2023-02-04T16:47:32.396Z,0.63
2023-02-04T16:50:01.124Z,0.17
2023-02-04T16:52:29.773Z,0.37
2023-02-04T16:54:59.175Z,0.17
2023-02-04T16:57:26.907Z,0.40
2023-02-04T16:59:54.797Z,0.25
2023-02-04T17:02:22.799Z,0.70
2023-02-04T17:04:50.727Z,0.13
2023-02-04T17:07:18.760Z,0.32
2023-02-04T17:09:46.610Z,0.28
2023-02-04T17:12:14.211Z,0.50
2023-02-04T17:14:42.038Z,0.82
2023-02-04T17:17:09.476Z,1.45
2023-02-04T17:19:37.320Z,0.73
2023-02-04T17:22:05.127Z,0.80
2023-02-04T17:24:32.875Z,0.40
2023-02-04T17:27:03.403Z,0.75
2023-02-04T17:29:31.471Z,0.35
2023-02-04T17:31:59.721Z,0.60
2023-02-04T17:34:28.662Z,0.47
2023-02-04T17:36:58.956Z,0.80
2023-02-04T17:39:26.769Z,0.45
2023-02-04T17:41:54.963Z,0.40
2023-02-04T17:44:26.713Z,0.40
2023-02-04T17:46:55.191Z,0.40
2023-02-04T17:49:23.029Z,0.55
2023-02-04T17:51:50.623Z,0.57
2023-02-04T17:54:18.490Z,0.10
2023-02-04T17:56:47.213Z,0.70
2023-02-04T17:59:14.979Z,1.05
2023-02-04T18:01:44.075Z,0.98
2023-02-04T18:04:15.007Z,1.10
2023-02-04T18:06:42.567Z,0.50
2023-02-04T18:09:18.051Z,0.90
2023-02-04T18:11:46.017Z,1.27
2023-02-04T18:14:24.902Z,0.50
2023-02-04T18:16:59.673Z,1.33
2023-02-04T18:19:37.075Z,0.60
2023-02-04T18:22:15.824Z,1.25
2023-02-04T18:24:48.716Z,1.85
2023-02-04T18:27:24.543Z,0.82
2023-02-04T18:29:55.861Z,0.93
2023-02-04T18:32:37.134Z,1.40
2023-02-04T18:35:48.107Z,0.90
2023-02-04T18:38:23.282Z,3.83
2023-02-04T18:41:21.881Z,2.00
2023-02-04T18:44:02.637Z,0.22
2023-02-04T18:46:36.705Z,1.23
2023-02-04T18:49:32.676Z,0.77
2023-02-04T18:52:20.566Z,1.00
2023-02-04T18:54:59.101Z,0.82
2023-02-04T18:57:39.339Z,1.10
2023-02-04T19:00:09.747Z,0.82
2023-02-04T19:02:42.555Z,1.02
2023-02-04T19:05:49.112Z,1.10
2023-02-04T19:08:23.701Z,2.05
2023-02-04T19:10:57.190Z,0.85
2023-02-04T19:13:41.873Z,1.45
2023-02-04T19:16:24.424Z,1.25
2023-02-04T19:18:54.956Z,2.17
2023-02-04T19:21:30.024Z,1.40
2023-02-04T19:24:14.392Z,1.98
2023-02-04T19:27:26.410Z,1.20
2023-02-04T19:29:56.275Z,1.52
2023-02-04T19:35:26.134Z,1.23
2023-02-04T19:38:02.559Z,1.67
2023-02-04T19:40:37.307Z,0.98
2023-02-04T19:43:36.388Z,1.23
2023-02-04T19:49:22.652Z,1.35
2023-02-04T19:51:57.577Z,1.15
2023-02-04T19:54:38.579Z,1.77
2023-02-04T19:57:24.299Z,2.38
2023-02-04T19:59:56.689Z,1.77
2023-02-04T20:02:38.919Z,1.63
2023-02-04T20:05:20.607Z,1.48
2023-02-04T20:07:48.420Z,0.98
2023-02-04T20:10:27.980Z,1.35
2023-02-04T20:13:18.234Z,1.52
2023-02-04T20:15:45.938Z,1.85
2023-02-04T20:18:20.096Z,1.75
2023-02-04T20:20:47.736Z,1.80
2023-02-04T20:23:30.212Z,1.00
2023-02-04T20:25:59.441Z,2.10
2023-02-04T20:31:41.371Z,0.82
2023-02-04T20:34:36.214Z,0.60
2023-02-04T20:37:06.326Z,1.70
2023-02-04T20:39:41.159Z,1.33
2023-02-04T20:42:34.472Z,1.20
2023-02-04T20:45:26.225Z,1.38
2023-02-04T20:48:02.236Z,0.93
2023-02-04T20:50:43.846Z,0.75
2023-02-04T20:53:38.759Z,0.75
2023-02-04T20:56:29.688Z,0.85
2023-02-04T20:59:12.559Z,0.65
2023-02-04T21:01:50.812Z,1.45
2023-02-04T21:04:32.392Z,0.68
2023-02-04T21:07:08.620Z,0.57
2023-02-04T21:09:37.579Z,0.75
2023-02-04T21:12:05.749Z,1.57
2023-02-04T21:14:34.198Z,1.65
2023-02-04T21:17:02.818Z,1.48
2023-02-04T21:19:30.701Z,0.80
2023-02-04T21:21:59.404Z,1.33
2023-02-04T21:24:28.440Z,0.98
2023-02-04T21:26:56.248Z,0.73
2023-02-04T21:29:24.141Z,1.58
2023-02-04T21:31:52.826Z,0.70
2023-02-04T21:34:20.754Z,0.70
2023-02-04T21:36:49.067Z,2.15
2023-02-04T21:39:35.953Z,1.00
2023-02-04T21:42:14.059Z,0.65
2023-02-04T21:44:41.839Z,0.35
2023-02-04T21:47:09.803Z,0.70
2023-02-04T21:49:40.221Z,0.35
2023-02-04T21:52:10.096Z,1.00
2023-02-04T21:54:38.016Z,0.70
2023-02-04T21:57:06.095Z,0.50
2023-02-04T21:59:34.135Z,0.40
2023-02-04T22:02:02.725Z,0.30
2023-02-04T22:04:30.369Z,0.43
2023-02-04T22:06:58.383Z,0.88
2023-02-04T22:09:26.104Z,0.30
2023-02-04T22:11:53.977Z,0.28
2023-02-04T22:14:40.506Z,0.95
2023-02-04T22:17:08.490Z,0.45
2023-02-04T22:19:36.163Z,0.60
2023-02-04T22:22:04.375Z,0.50
2023-02-04T22:24:32.057Z,0.85
2023-02-04T22:27:00.466Z,0.22
2023-02-04T22:29:30.011Z,0.15
2023-02-04T22:31:57.941Z,0.90
2023-02-04T22:34:26.131Z,0.95
2023-02-04T22:36:54.480Z,0.30
2023-02-04T22:39:22.223Z,0.43
2023-02-04T22:41:50.200Z,0.82
2023-02-04T22:44:17.939Z,0.52
2023-02-04T22:46:47.546Z,0.73
2023-02-04T22:49:15.236Z,0.55
2023-02-04T22:51:43.276Z,1.00
2023-02-04T22:54:11.419Z,0.82
2023-02-04T22:56:39.176Z,0.63
2023-02-04T22:59:06.776Z,0.40
2023-02-04T23:01:34.656Z,0.40
2023-02-04T23:04:02.843Z,1.00
2023-02-04T23:06:30.948Z,1.25
2023-02-04T23:08:58.608Z,0.55
2023-02-04T23:11:26.576Z,0.60
2023-02-04T23:13:54.296Z,0.50
2023-02-04T23:16:22.461Z,0.65
2023-02-04T23:18:50.050Z,0.35
2023-02-04T23:21:18.106Z,0.55
2023-02-04T23:23:45.678Z,0.22
2023-02-04T23:26:14.458Z,0.52
2023-02-04T23:28:42.321Z,0.30
2023-02-04T23:31:10.804Z,0.52
2023-02-04T23:33:38.439Z,0.50
2023-02-04T23:36:07.387Z,0.35
2023-02-04T23:38:34.917Z,0.50
2023-02-04T23:41:02.868Z,0.20
2023-02-04T23:43:30.357Z,1.55
2023-02-04T23:46:00.175Z,0.60
2023-02-04T23:48:27.953Z,0.68
2023-02-04T23:50:58.036Z,0.40
2023-02-04T23:53:25.651Z,0.55
2023-02-04T23:55:53.700Z,0.98
2023-02-04T23:58:21.511Z,0.50
